Time;durP1;ratioP1;P1;durP2;ratioP2;P2;SDS_P1;SDS_P2;PMS_P1;PMS_P2;Temp;Humidity;BMP_temperature;BMP_pressure;BME280_temperature;BME280_humidity;BME280_pressure;Samples;Min_cycle;Max_cycle;Signal;HPM_P1;HPM_P2
2022/03/23 00:00:42;;;;;;;30.15;16.63;;;;;;;;;;5056016;28;20261;-61
2022/03/23 00:03:07;;;;;;;28.65;16.67;;;;;;;;;;5055029;28;20236;-61
2022/03/23 00:05:32;;;;;;;25.55;16.25;;;;;;;;;;5055306;28;20717;-61
2022/03/23 00:07:58;;;;;;;27.05;16.52;;;;;;;;;;5054902;28;20275;-61
2022/03/23 00:10:23;;;;;;;29.90;16.50;;;;;;;;;;5037278;28;20313;-61
2022/03/23 00:12:48;;;;;;;32.17;16.60;;;;;;;;;;5055162;28;20211;-61
2022/03/23 00:15:14;;;;;;;27.98;16.38;;;;;;;;;;5054386;28;20690;-61
2022/03/23 00:17:40;;;;;;;33.05;16.75;;;;;;;;;;5055299;28;20249;-61
2022/03/23 00:20:05;;;;;;;26.83;15.93;;;;;;;;;;5054616;28;20215;-61
2022/03/23 00:22:31;;;;;;;27.98;15.82;;;;;;;;;;5054382;28;20222;-60
2022/03/23 00:24:56;;;;;;;34.45;18.02;;;;;;;;;;5049260;28;20645;-60
2022/03/23 00:27:22;;;;;;;29.75;17.90;;;;;;;;;;5061739;28;20218;-60
2022/03/23 00:29:48;;;;;;;33.15;17.77;;;;;;;;;;5051607;28;20605;-60
2022/03/23 00:32:14;;;;;;;27.80;17.45;;;;;;;;;;5046524;28;20271;-60
2022/03/23 00:34:39;;;;;;;32.38;17.70;;;;;;;;;;5046978;28;20392;-60
2022/03/23 00:37:05;;;;;;;29.08;17.48;;;;;;;;;;5043831;28;20301;-60
2022/03/23 00:39:30;;;;;;;30.42;16.70;;;;;;;;;;5037216;28;20218;-60
2022/03/23 00:41:56;;;;;;;27.00;16.88;;;;;;;;;;5044181;28;20271;-60
2022/03/23 00:44:21;;;;;;;30.27;16.92;;;;;;;;;;5055007;28;20225;-60
2022/03/23 00:46:46;;;;;;;32.92;16.83;;;;;;;;;;5043588;28;20219;-60
2022/03/23 00:49:12;;;;;;;28.00;17.08;;;;;;;;;;5043876;28;20220;-60
2022/03/23 00:51:38;;;;;;;26.23;16.77;;;;;;;;;;5044588;28;20215;-60
2022/03/23 00:54:03;;;;;;;31.80;17.75;;;;;;;;;;5044607;28;20231;-60
2022/03/23 00:56:29;;;;;;;32.83;17.65;;;;;;;;;;5044641;28;20222;-60
2022/03/23 00:58:54;;;;;;;29.67;17.38;;;;;;;;;;5047125;28;20214;-60
2022/03/23 01:01:19;;;;;;;31.67;17.50;;;;;;;;;;5039731;28;20520;-60
2022/03/23 01:03:44;;;;;;;28.90;16.45;;;;;;;;;;5035815;28;20219;-60
2022/03/23 01:06:10;;;;;;;29.17;17.48;;;;;;;;;;5054331;28;20210;-60
2022/03/23 01:08:35;;;;;;;31.20;17.00;;;;;;;;;;5042523;28;20222;-60
2022/03/23 01:11:01;;;;;;;29.52;17.35;;;;;;;;;;5063339;28;20214;-60
2022/03/23 01:13:26;;;;;;;28.08;17.33;;;;;;;;;;5064201;28;20210;-60
2022/03/23 01:15:52;;;;;;;29.85;17.83;;;;;;;;;;5064445;28;20242;-60
2022/03/23 01:18:17;;;;;;;29.02;17.23;;;;;;;;;;5062798;28;20653;-60
2022/03/23 01:20:42;;;;;;;36.95;19.05;;;;;;;;;;5064111;28;20222;-60
2022/03/23 01:23:08;;;;;;;31.63;18.02;;;;;;;;;;5061549;28;20699;-60
2022/03/23 01:25:34;;;;;;;30.83;17.35;;;;;;;;;;5055540;28;20206;-60
2022/03/23 01:27:59;;;;;;;31.60;18.25;;;;;;;;;;5055593;28;20689;-60
2022/03/23 01:30:24;;;;;;;30.73;18.42;;;;;;;;;;5056889;28;20225;-60
2022/03/23 01:32:49;;;;;;;31.88;18.05;;;;;;;;;;5057986;28;20299;-60
2022/03/23 01:35:15;;;;;;;28.13;17.45;;;;;;;;;;5043812;28;20301;-60
2022/03/23 01:37:40;;;;;;;31.52;17.10;;;;;;;;;;5044032;28;20209;-60
2022/03/23 01:40:06;;;;;;;29.23;17.33;;;;;;;;;;5042855;28;20701;-60
2022/03/23 01:42:31;;;;;;;27.75;17.38;;;;;;;;;;5044101;28;20220;-60
2022/03/23 01:44:57;;;;;;;29.85;17.10;;;;;;;;;;5043829;28;20211;-60
2022/03/23 01:47:22;;;;;;;27.67;16.67;;;;;;;;;;5036668;28;20226;-60
2022/03/23 01:49:49;;;;;;;31.83;17.33;;;;;;;;;;5035573;28;20211;-60
2022/03/23 01:52:16;;;;;;;30.13;17.17;;;;;;;;;;5035713;28;20213;-60
2022/03/23 01:54:42;;;;;;;32.28;17.35;;;;;;;;;;5060186;28;20661;-60
2022/03/23 01:57:08;;;;;;;26.60;17.02;;;;;;;;;;5053661;28;20294;-60
2022/03/23 01:59:34;;;;;;;28.10;15.85;;;;;;;;;;5053361;28;20617;-60
2022/03/23 02:01:59;;;;;;;28.45;16.92;;;;;;;;;;5043241;28;20218;-60
2022/03/23 02:04:24;;;;;;;30.13;17.73;;;;;;;;;;5043324;28;20218;-60
2022/03/23 02:06:50;;;;;;;34.05;18.58;;;;;;;;;;5042641;28;20247;-60
2022/03/23 02:09:15;;;;;;;26.13;16.00;;;;;;;;;;5058215;28;20232;-60
2022/03/23 02:11:41;;;;;;;25.88;16.83;;;;;;;;;;5055037;28;20665;-60
2022/03/23 02:14:06;;;;;;;27.20;16.85;;;;;;;;;;5053352;28;20225;-60
2022/03/23 02:16:38;;;;;;;30.50;16.92;;;;;;;;;;5058435;28;20207;-60
2022/03/23 02:19:03;;;;;;;28.05;16.83;;;;;;;;;;5062748;28;20213;-60
2022/03/23 02:21:28;;;;;;;25.20;16.23;;;;;;;;;;5062197;28;20218;-60
2022/03/23 02:23:54;;;;;;;29.52;16.90;;;;;;;;;;5045288;28;20682;-60
2022/03/23 02:26:19;;;;;;;27.80;16.42;;;;;;;;;;5061995;28;20214;-60
2022/03/23 02:28:45;;;;;;;27.67;17.20;;;;;;;;;;5062061;28;20306;-60
2022/03/23 02:31:10;;;;;;;28.02;16.25;;;;;;;;;;5060977;28;20214;-60
2022/03/23 02:33:35;;;;;;;26.30;16.27;;;;;;;;;;5043824;28;20207;-60
2022/03/23 02:36:00;;;;;;;26.88;17.08;;;;;;;;;;5033986;28;20207;-60
2022/03/23 02:38:26;;;;;;;29.90;17.05;;;;;;;;;;5035861;28;20214;-60
2022/03/23 02:40:51;;;;;;;33.40;17.23;;;;;;;;;;5042760;28;20215;-60
2022/03/23 02:43:16;;;;;;;29.08;17.50;;;;;;;;;;5041504;28;20272;-60
2022/03/23 02:45:42;;;;;;;29.08;17.58;;;;;;;;;;5043152;28;20214;-60
2022/03/23 02:48:07;;;;;;;27.05;16.77;;;;;;;;;;5042218;28;20257;-60
2022/03/23 02:50:33;;;;;;;25.35;16.70;;;;;;;;;;5042555;28;20222;-60
2022/03/23 03:04:04;;;;;;;30.90;16.42;;;;;;;;;;5061350;28;20338;-60
2022/03/23 03:06:29;;;;;;;29.35;17.75;;;;;;;;;;5061955;28;20254;-60
2022/03/23 03:08:54;;;;;;;30.55;17.15;;;;;;;;;;5062262;28;20229;-60
2022/03/23 03:11:20;;;;;;;29.10;17.73;;;;;;;;;;5060869;28;20214;-60
2022/03/23 03:13:48;;;;;;;32.83;17.75;;;;;;;;;;5061870;28;20218;-60
2022/03/23 03:16:13;;;;;;;30.02;18.02;;;;;;;;;;5061703;28;20297;-60
2022/03/23 03:18:38;;;;;;;33.35;17.52;;;;;;;;;;5052858;28;20423;-60
2022/03/23 03:21:04;;;;;;;28.80;17.48;;;;;;;;;;5053479;28;20743;-60
2022/03/23 03:23:30;;;;;;;27.42;18.38;;;;;;;;;;5054669;28;20244;-60
2022/03/23 03:25:56;;;;;;;29.58;18.23;;;;;;;;;;5059999;28;20300;-60
2022/03/23 03:28:21;;;;;;;27.00;17.92;;;;;;;;;;5061571;28;20277;-60
2022/03/23 03:30:47;;;;;;;29.67;18.33;;;;;;;;;;5065280;28;20230;-60
2022/03/23 03:33:12;;;;;;;29.70;18.67;;;;;;;;;;5057491;28;20241;-60
2022/03/23 03:35:37;;;;;;;32.47;18.80;;;;;;;;;;5046246;28;20222;-60
2022/03/23 03:38:02;;;;;;;31.42;19.55;;;;;;;;;;5045061;28;20574;-60
2022/03/23 03:40:28;;;;;;;26.73;18.60;;;;;;;;;;5041066;28;20211;-60
2022/03/23 03:42:53;;;;;;;30.92;18.73;;;;;;;;;;5038168;28;20539;-60
2022/03/23 03:45:19;;;;;;;30.20;18.55;;;;;;;;;;5037235;28;20298;-60
2022/03/23 03:47:44;;;;;;;32.85;20.52;;;;;;;;;;5042561;28;20223;-60
2022/03/23 03:50:10;;;;;;;33.22;19.08;;;;;;;;;;5045666;28;20223;-60
2022/03/23 03:52:35;;;;;;;30.83;19.33;;;;;;;;;;5044967;28;20221;-60
2022/03/23 03:55:00;;;;;;;33.03;20.33;;;;;;;;;;5045855;28;20269;-60
2022/03/23 03:57:26;;;;;;;32.85;18.60;;;;;;;;;;5046256;28;20216;-60
2022/03/23 03:59:51;;;;;;;32.83;20.17;;;;;;;;;;5045813;28;20740;-60
2022/03/23 04:02:16;;;;;;;37.03;20.58;;;;;;;;;;5042976;28;20245;-60
2022/03/23 04:04:41;;;;;;;34.67;20.27;;;;;;;;;;5038413;28;20294;-60
2022/03/23 04:07:07;;;;;;;34.60;20.52;;;;;;;;;;5036432;28;20619;-60
2022/03/23 04:09:33;;;;;;;29.63;19.58;;;;;;;;;;5039534;28;20237;-60
2022/03/23 04:11:58;;;;;;;29.48;19.80;;;;;;;;;;5045411;28;20595;-60
2022/03/23 04:14:23;;;;;;;30.27;19.23;;;;;;;;;;5044773;28;20268;-60
2022/03/23 04:16:49;;;;;;;33.45;20.08;;;;;;;;;;5045397;28;20215;-60
2022/03/23 04:19:14;;;;;;;38.63;21.05;;;;;;;;;;5045405;28;20277;-60
2022/03/23 04:21:39;;;;;;;31.88;19.23;;;;;;;;;;5044745;28;20225;-59
2022/03/23 04:24:05;;;;;;;33.75;20.80;;;;;;;;;;5044918;28;20341;-60
2022/03/23 04:26:30;;;;;;;32.30;19.77;;;;;;;;;;5038751;28;20222;-60
2022/03/23 04:28:55;;;;;;;33.08;20.85;;;;;;;;;;5036069;28;20712;-59
2022/03/23 04:31:20;;;;;;;31.02;19.00;;;;;;;;;;5037625;28;20219;-60
2022/03/23 04:33:46;;;;;;;32.55;20.13;;;;;;;;;;5055520;28;20720;-60
2022/03/23 04:36:11;;;;;;;32.67;20.73;;;;;;;;;;5063922;28;20238;-60
2022/03/23 04:38:36;;;;;;;30.42;19.58;;;;;;;;;;5064867;28;20217;-60
2022/03/23 04:41:03;;;;;;;33.22;20.60;;;;;;;;;;5062908;28;20226;-60
2022/03/23 04:43:28;;;;;;;33.40;20.85;;;;;;;;;;5064177;28;20219;-60
2022/03/23 04:45:53;;;;;;;32.70;20.65;;;;;;;;;;5051196;28;20215;-60
2022/03/23 04:48:19;;;;;;;31.92;20.23;;;;;;;;;;5039698;28;20234;-60
2022/03/23 04:50:46;;;;;;;35.08;20.73;;;;;;;;;;5036931;28;20822;-60
2022/03/23 04:53:12;;;;;;;32.17;19.95;;;;;;;;;;5036343;28;20314;-60
2022/03/23 04:55:37;;;;;;;35.00;20.70;;;;;;;;;;5039354;28;20237;-59
2022/03/23 04:58:03;;;;;;;30.15;19.02;;;;;;;;;;5044767;28;20214;-60
2022/03/23 05:00:28;;;;;;;34.22;20.90;;;;;;;;;;5044670;28;20298;-60
2022/03/23 05:02:53;;;;;;;32.58;20.73;;;;;;;;;;5044091;28;20246;-60
2022/03/23 05:05:19;;;;;;;32.90;20.73;;;;;;;;;;5044290;28;20562;-60
2022/03/23 05:07:44;;;;;;;30.80;20.02;;;;;;;;;;5044765;28;20234;-59
2022/03/23 05:10:10;;;;;;;31.90;21.90;;;;;;;;;;5061446;28;20735;-60
2022/03/23 05:12:36;;;;;;;29.55;19.88;;;;;;;;;;5056223;28;20297;-60
2022/03/23 05:15:02;;;;;;;32.33;20.73;;;;;;;;;;5055599;28;20210;-60
2022/03/23 05:17:27;;;;;;;33.88;21.27;;;;;;;;;;5038750;28;20222;-59
2022/03/23 05:19:52;;;;;;;38.95;21.65;;;;;;;;;;5063697;28;20237;-59
2022/03/23 05:22:17;;;;;;;33.50;19.35;;;;;;;;;;5063540;28;20218;-60
2022/03/23 05:24:43;;;;;;;34.67;22.05;;;;;;;;;;5063442;28;20214;-60
2022/03/23 05:27:09;;;;;;;33.67;20.85;;;;;;;;;;5063286;28;20230;-60
2022/03/23 05:29:35;;;;;;;36.97;21.70;;;;;;;;;;5064354;28;20211;-59
2022/03/23 05:32:01;;;;;;;35.22;21.33;;;;;;;;;;5062964;28;20238;-60
2022/03/23 05:34:26;;;;;;;33.65;21.27;;;;;;;;;;5039762;28;20253;-60
2022/03/23 05:36:51;;;;;;;36.30;20.17;;;;;;;;;;5035864;28;20235;-60
2022/03/23 05:39:17;;;;;;;37.85;21.75;;;;;;;;;;5034937;28;20787;-60
2022/03/23 05:41:42;;;;;;;33.47;21.55;;;;;;;;;;5041797;28;20297;-60
2022/03/23 05:44:07;;;;;;;35.97;21.92;;;;;;;;;;5043397;28;20215;-60
2022/03/23 05:46:32;;;;;;;36.28;20.73;;;;;;;;;;5043447;28;20221;-60
2022/03/23 05:48:58;;;;;;;35.45;21.05;;;;;;;;;;5043650;28;20245;-60
2022/03/23 05:51:23;;;;;;;39.38;22.80;;;;;;;;;;5042436;28;20211;-59
2022/03/23 05:53:49;;;;;;;34.88;20.92;;;;;;;;;;5042774;28;20223;-60
2022/03/23 05:56:14;;;;;;;39.53;21.67;;;;;;;;;;5039784;28;20219;-59
2022/03/23 05:58:39;;;;;;;35.65;21.73;;;;;;;;;;5034890;28;20199;-59
2022/03/23 06:01:05;;;;;;;35.25;21.52;;;;;;;;;;5035207;28;20241;-59
2022/03/23 06:03:31;;;;;;;35.25;21.95;;;;;;;;;;5057942;28;21131;-59
2022/03/23 06:05:56;;;;;;;34.20;22.13;;;;;;;;;;5044266;28;20206;-59
2022/03/23 06:08:21;;;;;;;36.45;22.25;;;;;;;;;;5062674;28;20218;-59
2022/03/23 06:10:47;;;;;;;38.47;22.40;;;;;;;;;;5064671;28;20215;-59
2022/03/23 06:13:12;;;;;;;36.67;23.25;;;;;;;;;;5061554;28;20242;-63
2022/03/23 06:15:37;;;;;;;35.65;21.63;;;;;;;;;;5053354;28;20260;-62
2022/03/23 06:18:03;;;;;;;32.15;21.48;;;;;;;;;;5052748;28;20218;-66
2022/03/23 06:20:28;;;;;;;37.97;25.33;;;;;;;;;;5051307;28;20919;-62
2022/03/23 06:22:53;;;;;;;36.05;22.85;;;;;;;;;;5053184;28;20239;-62
2022/03/23 06:25:18;;;;;;;35.08;21.48;;;;;;;;;;5052562;28;20215;-62
2022/03/23 06:27:44;;;;;;;38.63;22.67;;;;;;;;;;5034546;28;20237;-62
2022/03/23 06:30:09;;;;;;;33.90;22.17;;;;;;;;;;5052547;28;20218;-61
2022/03/23 06:32:35;;;;;;;38.83;23.20;;;;;;;;;;5052780;28;20584;-61
2022/03/23 06:35:00;;;;;;;35.30;22.08;;;;;;;;;;5052140;28;20223;-61
2022/03/23 06:37:26;;;;;;;35.45;21.60;;;;;;;;;;5052378;28;20223;-64
2022/03/23 06:39:51;;;;;;;37.70;23.08;;;;;;;;;;5052805;28;20222;-61
2022/03/23 06:42:17;;;;;;;33.90;21.70;;;;;;;;;;5051521;28;20301;-63
2022/03/23 06:44:43;;;;;;;38.95;21.30;;;;;;;;;;5057154;28;20237;-63
2022/03/23 06:47:08;;;;;;;32.97;21.08;;;;;;;;;;5066612;28;20677;-64
2022/03/23 06:49:33;;;;;;;31.63;20.52;;;;;;;;;;5061953;28;20272;-62
2022/03/23 06:51:59;;;;;;;33.38;22.05;;;;;;;;;;5064432;28;20210;-64
2022/03/23 06:54:24;;;;;;;35.08;22.75;;;;;;;;;;5061173;28;20267;-63
2022/03/23 06:56:51;;;;;;;35.63;22.08;;;;;;;;;;5059426;28;20229;-63
2022/03/23 06:59:17;;;;;;;36.47;21.30;;;;;;;;;;5059515;28;20207;-63
2022/03/23 07:01:42;;;;;;;39.20;22.60;;;;;;;;;;5056470;28;20587;-62
2022/03/23 07:04:08;;;;;;;34.75;22.10;;;;;;;;;;5050212;28;20207;-62
2022/03/23 07:06:33;;;;;;;35.30;21.80;;;;;;;;;;5052029;28;20731;-62
2022/03/23 07:11:42;;;;;;;29.73;20.63;;;;;;;;;;5054957;28;20267;-61
2022/03/23 07:14:07;;;;;;;40.05;21.77;;;;;;;;;;5055893;28;20215;-61
2022/03/23 07:16:32;;;;;;;36.00;21.83;;;;;;;;;;5051876;28;20227;-61
2022/03/23 07:18:58;;;;;;;39.03;21.52;;;;;;;;;;5079731;28;20264;-61
2022/03/23 07:21:23;;;;;;;36.33;22.27;;;;;;;;;;5052405;28;20214;-61
2022/03/23 07:23:49;;;;;;;32.47;22.02;;;;;;;;;;5058426;28;20198;-62
2022/03/23 07:26:16;;;;;;;32.20;21.52;;;;;;;;;;5071633;28;20275;-61
2022/03/23 07:28:41;;;;;;;31.40;21.20;;;;;;;;;;5071843;28;20210;-61
2022/03/23 07:31:08;;;;;;;31.15;20.80;;;;;;;;;;5070659;28;20214;-62
2022/03/23 07:33:33;;;;;;;29.88;20.38;;;;;;;;;;5071815;28;20541;-62
2022/03/23 07:35:58;;;;;;;29.70;21.83;;;;;;;;;;5072169;28;20260;-62
2022/03/23 07:38:24;;;;;;;31.95;21.20;;;;;;;;;;5070839;28;20307;-62
2022/03/23 07:40:49;;;;;;;33.15;21.90;;;;;;;;;;5071880;28;20237;-62
2022/03/23 07:43:14;;;;;;;33.35;21.52;;;;;;;;;;5071442;28;20673;-62
2022/03/23 07:45:39;;;;;;;32.28;22.23;;;;;;;;;;5058489;28;20599;-62
2022/03/23 07:48:05;;;;;;;28.77;20.90;;;;;;;;;;5051001;28;20231;-61
2022/03/23 07:50:30;;;;;;;30.85;21.88;;;;;;;;;;5051786;28;20645;-61
2022/03/23 07:52:55;;;;;;;27.98;20.40;;;;;;;;;;5050795;28;20215;-62
2022/03/23 07:55:21;;;;;;;30.92;21.73;;;;;;;;;;5051385;28;20226;-61
2022/03/23 07:57:46;;;;;;;31.63;20.85;;;;;;;;;;5051561;28;20268;-62
2022/03/23 08:00:12;;;;;;;30.70;21.40;;;;;;;;;;5065707;28;20206;-61
2022/03/23 08:02:37;;;;;;;33.03;22.38;;;;;;;;;;5053515;28;20206;-61
2022/03/23 08:05:03;;;;;;;32.03;22.65;;;;;;;;;;5070996;28;20214;-61
2022/03/23 08:07:29;;;;;;;32.60;22.30;;;;;;;;;;5071174;28;20700;-62
2022/03/23 08:09:54;;;;;;;33.35;21.90;;;;;;;;;;5071646;28;20225;-62
2022/03/23 08:12:19;;;;;;;29.58;22.45;;;;;;;;;;5070052;28;20214;-62
2022/03/23 08:14:45;;;;;;;29.50;21.95;;;;;;;;;;5071902;28;20214;-61
2022/03/23 08:17:10;;;;;;;32.13;22.63;;;;;;;;;;5056311;28;20217;-62
2022/03/23 08:19:36;;;;;;;33.53;22.90;;;;;;;;;;5074125;28;20207;-62
2022/03/23 08:22:01;;;;;;;31.73;23.42;;;;;;;;;;5052756;28;20294;-61
2022/03/23 08:24:27;;;;;;;31.13;23.50;;;;;;;;;;5074371;28;20553;-61
2022/03/23 08:26:53;;;;;;;34.08;23.23;;;;;;;;;;5056612;28;20234;-61
2022/03/23 08:29:18;;;;;;;33.80;24.13;;;;;;;;;;5074648;28;20309;-61
2022/03/23 08:31:44;;;;;;;32.83;24.85;;;;;;;;;;5056841;28;20238;-61
2022/03/23 08:34:09;;;;;;;33.72;24.45;;;;;;;;;;5073586;28;20221;-62
2022/03/23 08:36:34;;;;;;;34.78;24.33;;;;;;;;;;5075125;28;20199;-62
2022/03/23 08:39:00;;;;;;;33.33;24.33;;;;;;;;;;5074497;28;20222;-62
2022/03/23 08:41:27;;;;;;;40.38;24.05;;;;;;;;;;5073551;28;20198;-62
2022/03/23 08:43:52;;;;;;;36.78;23.90;;;;;;;;;;5074347;28;20225;-64
2022/03/23 08:46:18;;;;;;;34.35;25.10;;;;;;;;;;5079267;28;20206;-62
2022/03/23 08:48:43;;;;;;;36.80;24.48;;;;;;;;;;5094127;28;20839;-63
2022/03/23 08:51:09;;;;;;;35.67;24.17;;;;;;;;;;5094353;28;20218;-62
2022/03/23 08:53:34;;;;;;;33.90;25.83;;;;;;;;;;5094588;28;20206;-62
2022/03/23 08:55:59;;;;;;;34.42;23.70;;;;;;;;;;5094093;28;20230;-62
2022/03/23 08:58:25;;;;;;;34.10;24.50;;;;;;;;;;5093916;28;20205;-65
2022/03/23 09:00:50;;;;;;;35.03;24.38;;;;;;;;;;5074327;28;20226;-62
2022/03/23 09:03:15;;;;;;;33.55;24.42;;;;;;;;;;5072998;28;20208;-62
2022/03/23 09:05:41;;;;;;;35.72;24.67;;;;;;;;;;5074501;28;20320;-62
2022/03/23 09:08:07;;;;;;;36.55;24.40;;;;;;;;;;5073647;28;20223;-62
2022/03/23 09:10:34;;;;;;;32.95;25.70;;;;;;;;;;5073440;28;20207;-62
2022/03/23 09:12:59;;;;;;;30.15;23.77;;;;;;;;;;5074103;28;20677;-62
2022/03/23 09:15:25;;;;;;;34.70;24.10;;;;;;;;;;5073118;28;20217;-62
2022/03/23 09:17:50;;;;;;;35.10;24.38;;;;;;;;;;5055802;28;20542;-62
2022/03/23 09:20:16;;;;;;;31.48;24.08;;;;;;;;;;5073721;28;20578;-62
2022/03/23 09:22:41;;;;;;;31.83;23.63;;;;;;;;;;5065335;28;20611;-62
2022/03/23 09:25:07;;;;;;;29.13;22.70;;;;;;;;;;5053495;28;20795;-62
2022/03/23 09:27:33;;;;;;;32.10;23.38;;;;;;;;;;5053094;28;20284;-62
2022/03/23 09:29:59;;;;;;;34.08;24.85;;;;;;;;;;5052975;28;20277;-62
2022/03/23 09:32:24;;;;;;;33.67;23.80;;;;;;;;;;5053218;28;20242;-62
2022/03/23 09:34:49;;;;;;;31.60;23.15;;;;;;;;;;5053905;28;20585;-62
2022/03/23 09:39:58;;;;;;;28.98;22.40;;;;;;;;;;5053631;28;20276;-62
2022/03/23 09:42:24;;;;;;;29.27;22.92;;;;;;;;;;5053036;28;20599;-62
2022/03/23 09:44:49;;;;;;;31.27;24.25;;;;;;;;;;5040518;28;20211;-62
2022/03/23 09:47:14;;;;;;;31.05;22.80;;;;;;;;;;5055129;28;20210;-62
2022/03/23 09:49:40;;;;;;;33.63;23.15;;;;;;;;;;5073397;28;20606;-62
2022/03/23 09:52:05;;;;;;;33.03;24.58;;;;;;;;;;5054691;28;20222;-62
2022/03/23 09:54:30;;;;;;;31.00;23.65;;;;;;;;;;5073110;28;20211;-62
2022/03/23 09:56:56;;;;;;;30.50;23.38;;;;;;;;;;5073478;28;20301;-62
2022/03/23 09:59:21;;;;;;;33.10;24.42;;;;;;;;;;5063796;28;20290;-62
2022/03/23 10:01:46;;;;;;;31.98;25.70;;;;;;;;;;5053104;28;20215;-62
2022/03/23 10:04:12;;;;;;;34.03;25.55;;;;;;;;;;5052817;28;20298;-61
2022/03/23 10:06:40;;;;;;;34.75;25.17;;;;;;;;;;5052392;28;20214;-61
2022/03/23 10:09:24;;;;;;;32.42;25.73;;;;;;;;;;5052565;28;20215;-62
2022/03/23 10:11:49;;;;;;;33.58;24.85;;;;;;;;;;5052245;28;20546;-62
2022/03/23 10:14:25;;;;;;;34.38;25.35;;;;;;;;;;5052662;28;20290;-61
2022/03/23 10:17:14;;;;;;;32.22;24.95;;;;;;;;;;5052910;28;20257;-61
2022/03/23 10:19:41;;;;;;;36.85;24.77;;;;;;;;;;5051224;28;20289;-61
2022/03/23 10:22:08;;;;;;;34.40;24.15;;;;;;;;;;5055350;28;20203;-61
2022/03/23 10:24:34;;;;;;;30.92;23.52;;;;;;;;;;5059488;28;20215;-61
2022/03/23 10:27:03;;;;;;;30.38;22.33;;;;;;;;;;5051979;28;20536;-61
2022/03/23 10:29:31;;;;;;;28.33;22.27;;;;;;;;;;5052447;28;20203;-61
2022/03/23 10:32:00;;;;;;;29.63;24.40;;;;;;;;;;5052425;28;20211;-61
2022/03/23 10:34:35;;;;;;;32.35;24.02;;;;;;;;;;5051199;28;20215;-61
2022/03/23 10:37:00;;;;;;;33.13;24.10;;;;;;;;;;5052390;28;20203;-61
2022/03/23 10:39:26;;;;;;;33.08;24.85;;;;;;;;;;5052405;28;20337;-61
2022/03/23 10:41:56;;;;;;;31.70;23.08;;;;;;;;;;5051597;28;20211;-61
2022/03/23 10:44:22;;;;;;;28.98;23.00;;;;;;;;;;5053695;28;20229;-60
2022/03/23 10:46:47;;;;;;;31.80;24.23;;;;;;;;;;5072075;28;20214;-61
2022/03/23 10:49:13;;;;;;;31.13;23.35;;;;;;;;;;5070856;28;20261;-61
2022/03/23 10:51:38;;;;;;;35.55;25.05;;;;;;;;;;5072291;28;20209;-61
2022/03/23 10:54:13;;;;;;;32.08;23.83;;;;;;;;;;5070871;28;20214;-60
2022/03/23 10:56:39;;;;;;;28.83;22.52;;;;;;;;;;5072044;28;20218;-60
2022/03/23 10:59:23;;;;;;;32.60;22.85;;;;;;;;;;5065761;28;20295;-61
2022/03/23 11:01:55;;;;;;;34.90;23.48;;;;;;;;;;5051101;28;20215;-60
2022/03/23 11:04:21;;;;;;;27.65;21.75;;;;;;;;;;5051585;28;20215;-60
2022/03/23 11:06:46;;;;;;;34.55;22.85;;;;;;;;;;5052271;28;20720;-61
2022/03/23 11:15:46;;;;;;;31.25;23.73;;;;;;;;;;5050809;28;20230;-61
2022/03/23 11:17:06;;;;;;;29.52;21.83;;;;;;;;;;5051028;28;20215;-61
2022/03/23 11:19:31;;;;;;;30.83;21.17;;;;;;;;;;5052235;28;20295;-60
2022/03/23 11:22:05;;;;;;;27.77;22.00;;;;;;;;;;5051848;28;20731;-61
2022/03/23 11:24:32;;;;;;;28.77;21.70;;;;;;;;;;5064543;28;20746;-61
2022/03/23 11:26:57;;;;;;;25.52;20.88;;;;;;;;;;5071860;28;20238;-61
2022/03/23 11:29:23;;;;;;;26.90;21.20;;;;;;;;;;5070678;28;20584;-61
2022/03/23 11:31:48;;;;;;;24.85;20.33;;;;;;;;;;5071765;28;20210;-61
2022/03/23 11:34:17;;;;;;;30.55;20.75;;;;;;;;;;5071396;28;20210;-61
2022/03/23 11:36:42;;;;;;;26.10;20.65;;;;;;;;;;5053052;28;20215;-61
2022/03/23 11:39:07;;;;;;;29.25;20.88;;;;;;;;;;5071411;28;20315;-61
2022/03/23 11:41:33;;;;;;;24.75;18.13;;;;;;;;;;5071702;28;20214;-61
2022/03/23 11:43:58;;;;;;;28.38;19.52;;;;;;;;;;5053189;28;20336;-62
2022/03/23 11:46:24;;;;;;;26.10;17.92;;;;;;;;;;5052560;28;20264;-61
2022/03/23 11:49:00;;;;;;;21.67;16.55;;;;;;;;;;5051488;28;20698;-61
2022/03/23 11:51:35;;;;;;;19.85;16.45;;;;;;;;;;5035738;28;20198;-61
2022/03/23 11:54:10;;;;;;;26.50;19.27;;;;;;;;;;5036826;28;20685;-61
2022/03/23 11:56:39;;;;;;;24.25;18.90;;;;;;;;;;5055460;28;20214;-61
2022/03/23 11:59:17;;;;;;;20.58;14.68;;;;;;;;;;5059999;28;20221;-61
2022/03/23 12:01:42;;;;;;;23.65;15.55;;;;;;;;;;5075020;28;20571;-61
2022/03/23 12:04:10;;;;;;;24.25;17.38;;;;;;;;;;5074642;28;20214;-60
2022/03/23 12:06:36;;;;;;;23.00;17.58;;;;;;;;;;5056474;28;20614;-61
2022/03/23 12:09:02;;;;;;;24.35;15.73;;;;;;;;;;5074810;28;20226;-61
2022/03/23 12:11:31;;;;;;;22.42;15.85;;;;;;;;;;5056609;28;20217;-61
2022/03/23 12:13:57;;;;;;;25.65;16.00;;;;;;;;;;5075125;28;20225;-61
2022/03/23 12:16:42;;;;;;;22.92;15.40;;;;;;;;;;5074163;28;20678;-61
2022/03/23 12:19:07;;;;;;;23.67;15.88;;;;;;;;;;5073687;28;20230;-61
2022/03/23 12:21:49;;;;;;;25.38;17.60;;;;;;;;;;5074823;28;20693;-61
2022/03/23 12:24:18;;;;;;;25.33;16.40;;;;;;;;;;5065235;28;20685;-61
2022/03/23 12:26:46;;;;;;;22.58;17.58;;;;;;;;;;5074109;28;20206;-60
2022/03/23 12:29:13;;;;;;;21.05;15.57;;;;;;;;;;5073969;28;20230;-61
2022/03/23 12:31:39;;;;;;;23.48;15.52;;;;;;;;;;5074772;28;20219;-61
2022/03/23 12:34:06;;;;;;;24.90;16.05;;;;;;;;;;5070575;28;20720;-61
2022/03/23 12:39:22;;;;;;;19.52;12.93;;;;;;;;;;5054254;28;20269;-61
2022/03/23 12:41:47;;;;;;;23.42;15.05;;;;;;;;;;5054324;28;20222;-60
2022/03/23 12:44:12;;;;;;;20.38;15.40;;;;;;;;;;5053923;28;20561;-60
2022/03/23 12:46:42;;;;;;;24.42;15.35;;;;;;;;;;5073880;28;20206;-61
2022/03/23 13:00:09;;;;;;;20.65;11.60;;;;;;;;;;5058576;28;20575;-60
2022/03/23 13:02:34;;;;;;;20.65;12.43;;;;;;;;;;5052093;28;20207;-61
2022/03/23 13:05:00;;;;;;;23.20;12.02;;;;;;;;;;5054533;28;20296;-61
2022/03/23 13:07:28;;;;;;;19.73;10.73;;;;;;;;;;5035811;28;20233;-61
2022/03/23 13:09:57;;;;;;;19.35;12.57;;;;;;;;;;5053472;28;20207;-61
2022/03/23 13:12:25;;;;;;;21.20;13.93;;;;;;;;;;5053620;28;20634;-60
2022/03/23 13:14:51;;;;;;;22.45;12.45;;;;;;;;;;5052805;28;20288;-60
2022/03/23 13:17:17;;;;;;;19.73;12.23;;;;;;;;;;5053367;28;20678;-60
2022/03/23 13:19:42;;;;;;;18.63;11.18;;;;;;;;;;5053790;28;20650;-61
2022/03/23 13:22:08;;;;;;;19.30;9.52;;;;;;;;;;5052638;28;20207;-61
2022/03/23 13:24:33;;;;;;;16.88;7.32;;;;;;;;;;5067073;28;20724;-61
2022/03/23 13:26:58;;;;;;;13.75;6.20;;;;;;;;;;5073863;28;20221;-60
2022/03/23 13:29:25;;;;;;;17.48;5.68;;;;;;;;;;5072077;28;20630;-61
2022/03/23 13:31:50;;;;;;;13.85;4.90;;;;;;;;;;5058690;28;20203;-61
2022/03/23 13:34:16;;;;;;;15.95;6.32;;;;;;;;;;5053068;28;20222;-61
2022/03/23 13:36:42;;;;;;;15.80;5.63;;;;;;;;;;5052946;28;20274;-61
2022/03/23 13:39:12;;;;;;;13.63;5.07;;;;;;;;;;5052953;28;20218;-61
2022/03/23 13:44:54;;;;;;;15.55;6.30;;;;;;;;;;5053330;28;20268;-60
2022/03/23 13:47:07;;;;;;;17.38;6.78;;;;;;;;;;5072725;28;20210;-61
2022/03/23 13:49:33;;;;;;;13.13;5.88;;;;;;;;;;5073452;28;20206;-61
2022/03/23 13:52:00;;;;;;;16.67;6.78;;;;;;;;;;5072577;28;20223;-61
2022/03/23 13:54:25;;;;;;;18.00;7.07;;;;;;;;;;5072340;28;20249;-61
2022/03/23 13:56:51;;;;;;;17.75;6.57;;;;;;;;;;5072387;28;20252;-61
2022/03/23 13:59:17;;;;;;;13.45;5.70;;;;;;;;;;5064357;28;20644;-61
2022/03/23 14:01:43;;;;;;;16.35;6.90;;;;;;;;;;5035475;28;20207;-60
2022/03/23 14:04:09;;;;;;;16.88;7.40;;;;;;;;;;5051794;28;20581;-61
2022/03/23 14:06:43;;;;;;;13.23;7.20;;;;;;;;;;5053130;28;20639;-61
2022/03/23 14:09:08;;;;;;;17.02;8.55;;;;;;;;;;5052210;28;20252;-61
2022/03/23 14:12:02;;;;;;;17.05;8.23;;;;;;;;;;5052166;28;20290;-61
2022/03/23 14:14:31;;;;;;;21.02;8.60;;;;;;;;;;5037226;28;20214;-61
2022/03/23 14:17:01;;;;;;;15.55;8.05;;;;;;;;;;5052979;28;20735;-60
2022/03/23 14:19:27;;;;;;;18.27;8.63;;;;;;;;;;5051505;28;20294;-61
2022/03/23 14:21:53;;;;;;;16.10;7.80;;;;;;;;;;5053755;28;20290;-62
2022/03/23 14:24:19;;;;;;;15.48;7.85;;;;;;;;;;5060256;28;20285;-62
2022/03/23 14:26:45;;;;;;;16.17;7.88;;;;;;;;;;5042311;28;20575;-62
2022/03/23 14:29:17;;;;;;;16.17;7.38;;;;;;;;;;5063917;28;20219;-62
2022/03/23 14:31:44;;;;;;;18.15;7.20;;;;;;;;;;5072542;28;20237;-62
2022/03/23 14:34:09;;;;;;;17.83;6.90;;;;;;;;;;5071156;28;20202;-62
2022/03/23 14:36:35;;;;;;;16.05;6.97;;;;;;;;;;5072728;28;20217;-62
2022/03/23 14:39:00;;;;;;;15.45;7.63;;;;;;;;;;5071141;28;20230;-63
2022/03/23 14:41:27;;;;;;;15.18;8.07;;;;;;;;;;5072542;28;20542;-62
2022/03/23 14:43:52;;;;;;;17.70;7.32;;;;;;;;;;5071849;28;20211;-62
2022/03/23 14:46:23;;;;;;;16.35;7.22;;;;;;;;;;5053396;28;20215;-62
2022/03/23 14:49:00;;;;;;;15.90;6.70;;;;;;;;;;5051966;28;20231;-62
2022/03/23 14:51:25;;;;;;;12.82;6.68;;;;;;;;;;5052171;28;20226;-62